This is the latest recevied weather packets stored in our database for station/object KJ4EBE. If no packets are shown the sender has not sent any weather packets the latest 10 day(s).
| Time | Temp. | Humidity | Pressure | Rain* | Wind** | Luminosity | Snow |
|---|---|---|---|---|---|---|---|
| 1777233471 | 28.89° C | 71% | 1007.6 hPa | 0 mm | - | 534 W/m² | - |
| 1777233170 | 28.89° C | 73% | 1007.8 hPa | 0 mm | - | 453 W/m² | - |
| 1777232865 | 28.33° C | 74% | 1007.8 hPa | 0 mm | - | 336 W/m² | - |
| 1777232564 | 28.89° C | 72% | 1007.7 hPa | 0 mm | - | 195 W/m² | - |
| 1777232263 | 29.44° C | 70% | 1007.9 hPa | 0 mm | - | 409 W/m² | - |
| 1777231958 | 30.56° C | 68% | 1007.8 hPa | 0 mm | - | 788 W/m² | - |
| 1777231656 | 29.44° C | 71% | 1008.1 hPa | 0 mm | - | 831 W/m² | - |
| 1777231352 | 29.44° C | 71% | 1007.8 hPa | 0 mm | - | 667 W/m² | - |
| 1777231047 | 29.44° C | 71% | 1008.1 hPa | 0 mm | - | 624 W/m² | - |
| 1777230739 | 30° C | 69% | 1008.1 hPa | 0 mm | - | 623 W/m² | - |
| 1777230438 | 28.89° C | 72% | 1008.2 hPa | 0 mm | - | 416 W/m² | - |
| 1777230135 | 28.89° C | 73% | 1008.5 hPa | 0 mm | - | 462 W/m² | - |
| 1777229832 | 28.33° C | 73% | 1008.5 hPa | 0 mm | - | 497 W/m² | - |
| 1777229529 | 28.33° C | 73% | 1008.4 hPa | 0 mm | - | 288 W/m² | - |
| 1777229226 | 28.33° C | 73% | 1008.6 hPa | 0 mm | - | 373 W/m² | - |
| 1777228923 | 28.33° C | 75% | 1008.6 hPa | 0 mm | - | 330 W/m² | - |
| 1777228618 | 28.33° C | 73% | 1008.6 hPa | 0 mm | - | 254 W/m² | - |
| 1777228315 | 28.89° C | 72% | 1008.7 hPa | 0 mm | - | 291 W/m² | - |
| 1777228010 | 28.89° C | 72% | 1008.7 hPa | 0 mm | - | 398 W/m² | - |
| 1777227704 | 28.33° C | 72% | 1008.7 hPa | 0 mm | - | 426 W/m² | - |
| 1777227400 | 28.33° C | 72% | 1009 hPa | 0 mm | - | 237 W/m² | - |
| 1777227097 | 28.89° C | 71% | 1008.7 hPa | 0 mm | - | 406 W/m² | - |
| 1777226794 | 28.33° C | 71% | 1008.7 hPa | 0 mm | - | 366 W/m² | - |
| 1777226493 | 28.33° C | 71% | 1009 hPa | 0 mm | - | 715 W/m² | - |
| 1777226189 | 28.89° C | 72% | 1008.8 hPa | 0 mm | - | 408 W/m² | - |
* Rain latest hour (hover to see other rain measurements)
** Current wind speed in m/s (hover to see current wind gust speed)